sensor_id;sensor_type;location;lat;lon;timestamp;pressure;altitude;pressure_sealevel;temperature;humidity
2184;BME280;1098;48.940;8.962;2022-07-15T00:02:21;98830.84;;;18.30;66.14
2184;BME280;1098;48.940;8.962;2022-07-15T00:04:49;98833.25;;;18.11;69.39
2184;BME280;1098;48.940;8.962;2022-07-15T00:07:17;98840.34;;;18.07;69.23
2184;BME280;1098;48.940;8.962;2022-07-15T00:09:47;98834.00;;;17.96;70.69
2184;BME280;1098;48.940;8.962;2022-07-15T00:12:32;98839.44;;;17.86;72.51
2184;BME280;1098;48.940;8.962;2022-07-15T00:15:03;98838.38;;;17.97;70.43
2184;BME280;1098;48.940;8.962;2022-07-15T00:17:33;98842.13;;;17.81;72.54
2184;BME280;1098;48.940;8.962;2022-07-15T00:20:02;98836.59;;;17.66;73.31
2184;BME280;1098;48.940;8.962;2022-07-15T00:22:30;98843.06;;;17.60;74.04
2184;BME280;1098;48.940;8.962;2022-07-15T00:24:59;98839.00;;;17.62;72.40
2184;BME280;1098;48.940;8.962;2022-07-15T00:27:27;98831.50;;;17.84;76.85
2184;BME280;1098;48.940;8.962;2022-07-15T00:29:57;98834.69;;;17.71;72.48
2184;BME280;1098;48.940;8.962;2022-07-15T00:32:28;98836.00;;;17.64;71.63
2184;BME280;1098;48.940;8.962;2022-07-15T00:34:57;98831.00;;;17.56;77.42
2184;BME280;1098;48.940;8.962;2022-07-15T00:37:26;98827.72;;;17.96;74.52
2184;BME280;1098;48.940;8.962;2022-07-15T00:39:54;98835.72;;;17.23;77.33
2184;BME280;1098;48.940;8.962;2022-07-15T00:42:22;98834.69;;;17.66;80.63
2184;BME280;1098;48.940;8.962;2022-07-15T00:45:09;98836.66;;;17.39;80.20
2184;BME280;1098;48.940;8.962;2022-07-15T00:47:37;98811.72;;;17.30;78.50
2184;BME280;1098;48.940;8.962;2022-07-15T00:50:07;98837.16;;;17.36;76.91
2184;BME280;1098;48.940;8.962;2022-07-15T00:52:38;98837.28;;;17.14;78.05
2184;BME280;1098;48.940;8.962;2022-07-15T00:55:07;98841.03;;;17.03;79.54
2184;BME280;1098;48.940;8.962;2022-07-15T00:57:36;98833.97;;;17.12;83.34
2184;BME280;1098;48.940;8.962;2022-07-15T01:00:06;98833.19;;;16.84;85.50
2184;BME280;1098;48.940;8.962;2022-07-15T01:02:35;98834.63;;;16.65;87.26
2184;BME280;1098;48.940;8.962;2022-07-15T01:05:04;98834.06;;;16.63;90.22
2184;BME280;1098;48.940;8.962;2022-07-15T01:07:34;98829.44;;;16.42;94.12
2184;BME280;1098;48.940;8.962;2022-07-15T01:10:04;98824.38;;;16.50;93.31
2184;BME280;1098;48.940;8.962;2022-07-15T01:12:32;98823.59;;;16.55;90.25
2184;BME280;1098;48.940;8.962;2022-07-15T01:15:01;98829.41;;;16.37;95.86
2184;BME280;1098;48.940;8.962;2022-07-15T01:17:29;98830.38;;;16.26;93.74
2184;BME280;1098;48.940;8.962;2022-07-15T01:20:06;98834.16;;;16.46;93.95
2184;BME280;1098;48.940;8.962;2022-07-15T01:22:45;98836.88;;;16.46;99.49
2184;BME280;1098;48.940;8.962;2022-07-15T01:25:14;98832.03;;;16.27;96.86
2184;BME280;1098;48.940;8.962;2022-07-15T01:27:43;98827.97;;;16.07;100.00
2184;BME280;1098;48.940;8.962;2022-07-15T01:30:18;98835.50;;;16.00;100.00
2184;BME280;1098;48.940;8.962;2022-07-15T01:32:48;98839.38;;;16.04;100.00
2184;BME280;1098;48.940;8.962;2022-07-15T01:35:16;98839.69;;;15.86;100.00
2184;BME280;1098;48.940;8.962;2022-07-15T01:37:48;98836.97;;;15.86;100.00
2184;BME280;1098;48.940;8.962;2022-07-15T01:40:17;98838.44;;;15.72;100.00
2184;BME280;1098;48.940;8.962;2022-07-15T01:42:45;98828.84;;;15.69;100.00
2184;BME280;1098;48.940;8.962;2022-07-15T01:45:15;98832.16;;;15.71;100.00
2184;BME280;1098;48.940;8.962;2022-07-15T01:47:47;98833.72;;;15.51;100.00
2184;BME280;1098;48.940;8.962;2022-07-15T01:50:34;98831.00;;;15.51;100.00
2184;BME280;1098;48.940;8.962;2022-07-15T01:53:12;98834.47;;;15.46;100.00
2184;BME280;1098;48.940;8.962;2022-07-15T01:55:40;98834.31;;;15.53;100.00
2184;BME280;1098;48.940;8.962;2022-07-15T01:58:08;98828.22;;;15.29;100.00
2184;BME280;1098;48.940;8.962;2022-07-15T02:00:38;98841.09;;;15.33;100.00
2184;BME280;1098;48.940;8.962;2022-07-15T02:03:06;98826.41;;;15.18;100.00
2184;BME280;1098;48.940;8.962;2022-07-15T02:05:35;98833.69;;;15.12;100.00
2184;BME280;1098;48.940;8.962;2022-07-15T02:08:04;98832.75;;;15.23;100.00
2184;BME280;1098;48.940;8.962;2022-07-15T02:10:40;98832.69;;;15.18;100.00
2184;BME280;1098;48.940;8.962;2022-07-15T02:13:15;98843.03;;;15.16;100.00
2184;BME280;1098;48.940;8.962;2022-07-15T02:15:48;98834.59;;;15.34;100.00
2184;BME280;1098;48.940;8.962;2022-07-15T02:18:16;98834.97;;;15.43;100.00
2184;BME280;1098;48.940;8.962;2022-07-15T02:20:45;98819.56;;;15.32;100.00
2184;BME280;1098;48.940;8.962;2022-07-15T02:23:13;98831.28;;;14.99;100.00
2184;BME280;1098;48.940;8.962;2022-07-15T02:25:43;98833.59;;;15.24;100.00
2184;BME280;1098;48.940;8.962;2022-07-15T02:28:11;98833.69;;;15.12;100.00
2184;BME280;1098;48.940;8.962;2022-07-15T02:30:41;98832.34;;;15.31;100.00
2184;BME280;1098;48.940;8.962;2022-07-15T02:33:10;98829.53;;;15.60;100.00
2184;BME280;1098;48.940;8.962;2022-07-15T02:35:41;98840.09;;;15.23;100.00
2184;BME280;1098;48.940;8.962;2022-07-15T02:38:10;98847.22;;;15.07;100.00
2184;BME280;1098;48.940;8.962;2022-07-15T02:40:38;98831.22;;;14.94;100.00
2184;BME280;1098;48.940;8.962;2022-07-15T02:43:14;98836.66;;;14.94;100.00
2184;BME280;1098;48.940;8.962;2022-07-15T02:45:43;98836.22;;;14.68;100.00
2184;BME280;1098;48.940;8.962;2022-07-15T02:48:16;98847.69;;;14.70;100.00
2184;BME280;1098;48.940;8.962;2022-07-15T02:50:46;98842.50;;;14.86;100.00
2184;BME280;1098;48.940;8.962;2022-07-15T02:53:16;98848.53;;;15.21;100.00
2184;BME280;1098;48.940;8.962;2022-07-15T02:55:46;98844.81;;;14.94;100.00
2184;BME280;1098;48.940;8.962;2022-07-15T02:58:16;98851.84;;;14.61;100.00
2184;BME280;1098;48.940;8.962;2022-07-15T03:00:47;98852.25;;;14.53;100.00
2184;BME280;1098;48.940;8.962;2022-07-15T03:03:17;98847.97;;;14.57;100.00
2184;BME280;1098;48.940;8.962;2022-07-15T03:05:48;98846.81;;;14.53;100.00
2184;BME280;1098;48.940;8.962;2022-07-15T03:08:16;98853.56;;;14.51;100.00
2184;BME280;1098;48.940;8.962;2022-07-15T03:10:45;98853.75;;;14.21;100.00
2184;BME280;1098;48.940;8.962;2022-07-15T03:13:13;98859.31;;;14.14;100.00
2184;BME280;1098;48.940;8.962;2022-07-15T03:15:42;98855.63;;;14.32;100.00
2184;BME280;1098;48.940;8.962;2022-07-15T03:18:10;98854.34;;;14.23;100.00
2184;BME280;1098;48.940;8.962;2022-07-15T03:20:39;98858.78;;;14.40;100.00
2184;BME280;1098;48.940;8.962;2022-07-15T03:23:14;98862.09;;;14.42;100.00
2184;BME280;1098;48.940;8.962;2022-07-15T03:25:42;98861.56;;;14.57;100.00
2184;BME280;1098;48.940;8.962;2022-07-15T03:28:13;98856.78;;;14.36;100.00
2184;BME280;1098;48.940;8.962;2022-07-15T03:30:42;98865.88;;;14.41;100.00
2184;BME280;1098;48.940;8.962;2022-07-15T03:33:13;98837.44;;;14.21;100.00
2184;BME280;1098;48.940;8.962;2022-07-15T03:35:42;98864.44;;;14.51;100.00
2184;BME280;1098;48.940;8.962;2022-07-15T03:38:11;98861.66;;;14.34;100.00
2184;BME280;1098;48.940;8.962;2022-07-15T03:40:39;98865.91;;;14.30;100.00
2184;BME280;1098;48.940;8.962;2022-07-15T03:43:07;98865.88;;;14.41;100.00
2184;BME280;1098;48.940;8.962;2022-07-15T03:45:35;98863.44;;;14.28;100.00
2184;BME280;1098;48.940;8.962;2022-07-15T03:48:05;98860.78;;;14.45;100.00
2184;BME280;1098;48.940;8.962;2022-07-15T03:50:35;98869.47;;;14.19;100.00
2184;BME280;1098;48.940;8.962;2022-07-15T03:53:03;98865.09;;;14.29;100.00
2184;BME280;1098;48.940;8.962;2022-07-15T03:55:32;98877.44;;;14.37;100.00
2184;BME280;1098;48.940;8.962;2022-07-15T03:58:00;98880.16;;;14.37;100.00
2184;BME280;1098;48.940;8.962;2022-07-15T04:00:28;98882.81;;;14.32;100.00
2184;BME280;1098;48.940;8.962;2022-07-15T04:02:57;98885.81;;;14.07;100.00
2184;BME280;1098;48.940;8.962;2022-07-15T04:05:27;98879.16;;;14.26;100.00
2184;BME280;1098;48.940;8.962;2022-07-15T04:07:55;98885.28;;;14.33;100.00
2184;BME280;1098;48.940;8.962;2022-07-15T04:10:25;98892.28;;;14.18;100.00
2184;BME280;1098;48.940;8.962;2022-07-15T04:12:54;98882.88;;;14.37;100.00
2184;BME280;1098;48.940;8.962;2022-07-15T04:15:22;98878.91;;;14.68;100.00
2184;BME280;1098;48.940;8.962;2022-07-15T04:17:50;98879.50;;;14.70;100.00
2184;BME280;1098;48.940;8.962;2022-07-15T04:20:20;98887.22;;;14.61;100.00
2184;BME280;1098;48.940;8.962;2022-07-15T04:22:53;98870.19;;;14.83;100.00
2184;BME280;1098;48.940;8.962;2022-07-15T04:25:22;98874.63;;;14.72;100.00
2184;BME280;1098;48.940;8.962;2022-07-15T04:27:51;98883.78;;;14.83;100.00
2184;BME280;1098;48.940;8.962;2022-07-15T04:30:24;98874.41;;;15.40;100.00
2184;BME280;1098;48.940;8.962;2022-07-15T04:32:52;98876.56;;;15.05;100.00
2184;BME280;1098;48.940;8.962;2022-07-15T04:35:23;98876.91;;;14.92;100.00
2184;BME280;1098;48.940;8.962;2022-07-15T04:38:13;98875.91;;;15.31;100.00
2184;BME280;1098;48.940;8.962;2022-07-15T04:40:42;98878.53;;;15.43;100.00
2184;BME280;1098;48.940;8.962;2022-07-15T04:43:12;98879.06;;;15.57;100.00
2184;BME280;1098;48.940;8.962;2022-07-15T04:45:43;98880.25;;;14.99;100.00
2184;BME280;1098;48.940;8.962;2022-07-15T04:48:14;98875.25;;;15.24;100.00
2184;BME280;1098;48.940;8.962;2022-07-15T04:51:03;98876.13;;;15.80;100.00
2184;BME280;1098;48.940;8.962;2022-07-15T04:53:33;98881.03;;;16.22;100.00
2184;BME280;1098;48.940;8.962;2022-07-15T04:56:03;98880.59;;;16.30;100.00
2184;BME280;1098;48.940;8.962;2022-07-15T04:58:34;98872.66;;;16.50;100.00
2184;BME280;1098;48.940;8.962;2022-07-15T05:01:05;98875.31;;;16.45;100.00
2184;BME280;1098;48.940;8.962;2022-07-15T05:03:33;98878.09;;;16.50;100.00
2184;BME280;1098;48.940;8.962;2022-07-15T05:06:01;98878.44;;;16.32;100.00
2184;BME280;1098;48.940;8.962;2022-07-15T05:08:35;98884.66;;;16.98;100.00
2184;BME280;1098;48.940;8.962;2022-07-15T05:11:03;98885.72;;;17.61;100.00
2184;BME280;1098;48.940;8.962;2022-07-15T05:13:32;98890.88;;;16.93;100.00
2184;BME280;1098;48.940;8.962;2022-07-15T05:16:00;98888.81;;;16.78;100.00
2184;BME280;1098;48.940;8.962;2022-07-15T05:18:30;98885.84;;;17.12;100.00
2184;BME280;1098;48.940;8.962;2022-07-15T05:21:00;98886.09;;;17.37;100.00
2184;BME280;1098;48.940;8.962;2022-07-15T05:23:36;98881.31;;;17.23;100.00
2184;BME280;1098;48.940;8.962;2022-07-15T05:26:05;98892.84;;;16.98;100.00
2184;BME280;1098;48.940;8.962;2022-07-15T05:28:37;98887.69;;;16.74;100.00
2184;BME280;1098;48.940;8.962;2022-07-15T05:31:05;98890.63;;;17.59;100.00
2184;BME280;1098;48.940;8.962;2022-07-15T05:33:34;98891.59;;;17.47;100.00
2184;BME280;1098;48.940;8.962;2022-07-15T05:36:10;98893.72;;;17.72;98.42
2184;BME280;1098;48.940;8.962;2022-07-15T05:38:43;98892.81;;;17.25;99.69
2184;BME280;1098;48.940;8.962;2022-07-15T05:41:12;98895.91;;;21.54;76.09
2184;BME280;1098;48.940;8.962;2022-07-15T05:43:40;98886.97;;;24.36;58.11
2184;BME280;1098;48.940;8.962;2022-07-15T05:46:09;98894.44;;;25.57;55.41
2184;BME280;1098;48.940;8.962;2022-07-15T05:48:48;98896.78;;;24.42;53.33
2184;BME280;1098;48.940;8.962;2022-07-15T05:51:19;98900.72;;;25.26;49.13
2184;BME280;1098;48.940;8.962;2022-07-15T05:53:49;98910.56;;;26.08;46.19
2184;BME280;1098;48.940;8.962;2022-07-15T05:56:17;98908.53;;;25.47;48.59
2184;BME280;1098;48.940;8.962;2022-07-15T05:58:45;98910.28;;;27.32;45.19
2184;BME280;1098;48.940;8.962;2022-07-15T06:01:14;98910.25;;;27.66;44.46
2184;BME280;1098;48.940;8.962;2022-07-15T06:03:45;98910.38;;;27.96;42.12
2184;BME280;1098;48.940;8.962;2022-07-15T06:06:16;98914.94;;;28.85;40.62
2184;BME280;1098;48.940;8.962;2022-07-15T06:08:47;98915.41;;;28.49;40.70
2184;BME280;1098;48.940;8.962;2022-07-15T06:11:18;98917.56;;;25.75;42.14
2184;BME280;1098;48.940;8.962;2022-07-15T06:13:49;98920.50;;;24.56;45.42
2184;BME280;1098;48.940;8.962;2022-07-15T06:16:17;98917.88;;;25.37;45.20
2184;BME280;1098;48.940;8.962;2022-07-15T06:18:45;98916.63;;;27.50;41.79
2184;BME280;1098;48.940;8.962;2022-07-15T06:21:14;98915.16;;;28.42;40.78
2184;BME280;1098;48.940;8.962;2022-07-15T06:23:44;98921.34;;;25.20;45.55
2184;BME280;1098;48.940;8.962;2022-07-15T06:26:14;98910.81;;;29.12;40.97
2184;BME280;1098;48.940;8.962;2022-07-15T06:28:44;98914.03;;;27.53;41.71
2184;BME280;1098;48.940;8.962;2022-07-15T06:31:19;98904.06;;;27.52;41.49
2184;BME280;1098;48.940;8.962;2022-07-15T06:33:48;98919.41;;;24.44;43.89
2184;BME280;1098;48.940;8.962;2022-07-15T06:36:18;98910.38;;;24.11;44.51
2184;BME280;1098;48.940;8.962;2022-07-15T06:38:46;98918.28;;;22.96;48.08
2184;BME280;1098;48.940;8.962;2022-07-15T06:41:17;98909.56;;;23.45;47.59
2184;BME280;1098;48.940;8.962;2022-07-15T06:43:50;98909.09;;;21.57;52.73
2184;BME280;1098;48.940;8.962;2022-07-15T06:46:33;98909.09;;;20.74;56.51
2184;BME280;1098;48.940;8.962;2022-07-15T06:49:04;98910.47;;;21.21;57.04
2184;BME280;1098;48.940;8.962;2022-07-15T06:51:32;98913.69;;;21.96;53.79
2184;BME280;1098;48.940;8.962;2022-07-15T06:54:01;98903.63;;;20.69;55.24
2184;BME280;1098;48.940;8.962;2022-07-15T06:56:32;98903.97;;;21.02;55.27
2184;BME280;1098;48.940;8.962;2022-07-15T06:59:02;98912.59;;;21.63;53.16
2184;BME280;1098;48.940;8.962;2022-07-15T07:01:31;98916.50;;;21.23;53.00
2184;BME280;1098;48.940;8.962;2022-07-15T07:03:59;98907.16;;;22.63;52.78
2184;BME280;1098;48.940;8.962;2022-07-15T07:06:28;98902.69;;;20.89;53.43
2184;BME280;1098;48.940;8.962;2022-07-15T07:08:56;98907.16;;;21.58;51.63
2184;BME280;1098;48.940;8.962;2022-07-15T07:11:29;98910.69;;;22.21;54.96
2184;BME280;1098;48.940;8.962;2022-07-15T07:13:57;98898.94;;;21.19;51.72
2184;BME280;1098;48.940;8.962;2022-07-15T07:16:30;98902.00;;;20.63;52.11
2184;BME280;1098;48.940;8.962;2022-07-15T07:19:01;98891.84;;;21.08;51.02
2184;BME280;1098;48.940;8.962;2022-07-15T07:21:29;98890.34;;;20.86;51.89
2184;BME280;1098;48.940;8.962;2022-07-15T07:23:58;98901.78;;;21.43;50.45
2184;BME280;1098;48.940;8.962;2022-07-15T07:26:27;98900.88;;;21.18;51.07
2184;BME280;1098;48.940;8.962;2022-07-15T07:28:55;98899.50;;;21.16;50.81
2184;BME280;1098;48.940;8.962;2022-07-15T07:31:23;98895.88;;;21.59;49.65
2184;BME280;1098;48.940;8.962;2022-07-15T07:33:55;98894.19;;;21.92;47.79
2184;BME280;1098;48.940;8.962;2022-07-15T07:36:24;98896.16;;;21.87;47.45
2184;BME280;1098;48.940;8.962;2022-07-15T07:38:52;98895.16;;;22.73;48.98
2184;BME280;1098;48.940;8.962;2022-07-15T07:41:21;98891.63;;;21.72;44.63
2184;BME280;1098;48.940;8.962;2022-07-15T07:43:49;98885.47;;;21.17;47.73
2184;BME280;1098;48.940;8.962;2022-07-15T07:46:17;98891.50;;;21.58;44.33
2184;BME280;1098;48.940;8.962;2022-07-15T07:48:45;98889.53;;;21.88;44.98
2184;BME280;1098;48.940;8.962;2022-07-15T07:51:15;98893.16;;;21.54;46.45
2184;BME280;1098;48.940;8.962;2022-07-15T07:53:44;98897.38;;;21.76;45.36
2184;BME280;1098;48.940;8.962;2022-07-15T07:56:14;98882.91;;;22.42;44.79
2184;BME280;1098;48.940;8.962;2022-07-15T07:58:42;98885.38;;;21.61;45.40
2184;BME280;1098;48.940;8.962;2022-07-15T08:01:10;98878.91;;;22.53;50.53
2184;BME280;1098;48.940;8.962;2022-07-15T08:03:38;98880.91;;;22.47;45.78
2184;BME280;1098;48.940;8.962;2022-07-15T08:06:08;98889.25;;;22.18;45.16
2184;BME280;1098;48.940;8.962;2022-07-15T08:08:38;98882.72;;;22.09;44.54
2184;BME280;1098;48.940;8.962;2022-07-15T08:11:06;98874.53;;;22.28;47.79
2184;BME280;1098;48.940;8.962;2022-07-15T08:13:34;98888.97;;;22.62;44.60
2184;BME280;1098;48.940;8.962;2022-07-15T08:16:05;98879.41;;;22.12;43.94
2184;BME280;1098;48.940;8.962;2022-07-15T08:18:35;98872.31;;;22.91;46.67
2184;BME280;1098;48.940;8.962;2022-07-15T08:21:07;98886.41;;;22.47;42.87
2184;BME280;1098;48.940;8.962;2022-07-15T08:23:35;98879.66;;;22.58;45.26
2184;BME280;1098;48.940;8.962;2022-07-15T08:26:05;98879.94;;;23.00;43.18
2184;BME280;1098;48.940;8.962;2022-07-15T08:28:34;98882.44;;;22.35;42.52
2184;BME280;1098;48.940;8.962;2022-07-15T08:31:22;98882.56;;;22.24;43.14
2184;BME280;1098;48.940;8.962;2022-07-15T08:33:51;98888.34;;;22.47;44.16
2184;BME280;1098;48.940;8.962;2022-07-15T08:36:20;98892.31;;;22.59;44.65
2184;BME280;1098;48.940;8.962;2022-07-15T08:38:49;98893.22;;;22.31;45.80
2184;BME280;1098;48.940;8.962;2022-07-15T08:41:21;98876.72;;;22.92;44.93
2184;BME280;1098;48.940;8.962;2022-07-15T08:43:49;98890.91;;;22.62;47.32
2184;BME280;1098;48.940;8.962;2022-07-15T08:46:20;98894.00;;;22.79;43.89
2184;BME280;1098;48.940;8.962;2022-07-15T08:48:52;98889.09;;;23.14;43.67
2184;BME280;1098;48.940;8.962;2022-07-15T08:51:28;98899.63;;;22.69;43.11
2184;BME280;1098;48.940;8.962;2022-07-15T08:54:00;98896.75;;;22.37;43.27
2184;BME280;1098;48.940;8.962;2022-07-15T08:56:30;98906.41;;;22.10;43.80
2184;BME280;1098;48.940;8.962;2022-07-15T08:58:58;98897.78;;;22.41;43.60
2184;BME280;1098;48.940;8.962;2022-07-15T09:01:27;98897.34;;;23.14;44.67
2184;BME280;1098;48.940;8.962;2022-07-15T09:03:56;98895.16;;;23.29;43.13
2184;BME280;1098;48.940;8.962;2022-07-15T09:06:31;98897.00;;;22.59;42.70
2184;BME280;1098;48.940;8.962;2022-07-15T09:09:12;98898.25;;;23.09;43.53
2184;BME280;1098;48.940;8.962;2022-07-15T09:11:54;98885.97;;;23.02;42.36
2184;BME280;1098;48.940;8.962;2022-07-15T09:14:34;98892.63;;;22.34;42.08
2184;BME280;1098;48.940;8.962;2022-07-15T09:17:07;98896.09;;;22.87;41.68
2184;BME280;1098;48.940;8.962;2022-07-15T09:19:55;98889.34;;;23.31;42.95
2184;BME280;1098;48.940;8.962;2022-07-15T09:22:23;98893.91;;;23.41;41.46
2184;BME280;1098;48.940;8.962;2022-07-15T09:24:54;98893.13;;;23.21;43.56
2184;BME280;1098;48.940;8.962;2022-07-15T09:27:30;98898.09;;;23.19;41.73
2184;BME280;1098;48.940;8.962;2022-07-15T09:30:11;98893.50;;;23.66;41.44
2184;BME280;1098;48.940;8.962;2022-07-15T09:32:57;98894.81;;;23.17;40.65
2184;BME280;1098;48.940;8.962;2022-07-15T09:35:39;98900.22;;;22.23;42.04
2184;BME280;1098;48.940;8.962;2022-07-15T09:38:26;98888.84;;;23.29;40.77
2184;BME280;1098;48.940;8.962;2022-07-15T09:40:54;98893.31;;;23.44;42.55
2184;BME280;1098;48.940;8.962;2022-07-15T09:43:24;98892.72;;;23.09;40.79
2184;BME280;1098;48.940;8.962;2022-07-15T09:45:58;98893.88;;;23.59;42.70
2184;BME280;1098;48.940;8.962;2022-07-15T09:48:27;98885.63;;;23.73;41.61
2184;BME280;1098;48.940;8.962;2022-07-15T09:50:57;98885.13;;;23.20;40.60
2184;BME280;1098;48.940;8.962;2022-07-15T09:53:25;98892.00;;;23.22;45.60
2184;BME280;1098;48.940;8.962;2022-07-15T09:55:54;98893.41;;;23.01;41.40
2184;BME280;1098;48.940;8.962;2022-07-15T09:58:23;98888.84;;;23.10;41.98
2184;BME280;1098;48.940;8.962;2022-07-15T10:00:54;98883.66;;;24.06;43.49
2184;BME280;1098;48.940;8.962;2022-07-15T10:03:23;98889.03;;;23.84;42.07
2184;BME280;1098;48.940;8.962;2022-07-15T10:05:52;98888.19;;;23.51;42.10
2184;BME280;1098;48.940;8.962;2022-07-15T10:08:30;98887.41;;;23.83;41.14
2184;BME280;1098;48.940;8.962;2022-07-15T10:10:58;98896.72;;;23.87;40.87
2184;BME280;1098;48.940;8.962;2022-07-15T10:13:34;98894.66;;;23.79;41.83
2184;BME280;1098;48.940;8.962;2022-07-15T10:16:10;98889.16;;;23.92;40.72
2184;BME280;1098;48.940;8.962;2022-07-15T10:18:48;98882.63;;;24.02;41.48
2184;BME280;1098;48.940;8.962;2022-07-15T10:21:24;98883.84;;;23.31;41.58
2184;BME280;1098;48.940;8.962;2022-07-15T10:24:05;98883.03;;;23.95;40.63
2184;BME280;1098;48.940;8.962;2022-07-15T10:26:40;98875.28;;;24.66;40.39
2184;BME280;1098;48.940;8.962;2022-07-15T10:29:12;98879.94;;;23.51;41.36
2184;BME280;1098;48.940;8.962;2022-07-15T10:31:41;98875.38;;;24.20;40.08
2184;BME280;1098;48.940;8.962;2022-07-15T10:34:15;98869.56;;;24.49;42.22
2184;BME280;1098;48.940;8.962;2022-07-15T10:36:53;98871.16;;;23.95;40.58
2184;BME280;1098;48.940;8.962;2022-07-15T10:39:22;98859.56;;;24.75;39.69
2184;BME280;1098;48.940;8.962;2022-07-15T10:41:51;98853.59;;;24.32;40.84
2184;BME280;1098;48.940;8.962;2022-07-15T10:44:21;98861.44;;;24.11;42.88
2184;BME280;1098;48.940;8.962;2022-07-15T10:49:33;98867.69;;;24.03;41.79
2184;BME280;1098;48.940;8.962;2022-07-15T10:52:09;98867.88;;;23.93;41.21
2184;BME280;1098;48.940;8.962;2022-07-15T10:54:39;98850.34;;;24.93;41.61
2184;BME280;1098;48.940;8.962;2022-07-15T10:57:09;98861.34;;;23.89;41.38
2184;BME280;1098;48.940;8.962;2022-07-15T10:59:39;98860.66;;;24.11;41.83
2184;BME280;1098;48.940;8.962;2022-07-15T11:02:15;98843.84;;;25.12;40.97
2184;BME280;1098;48.940;8.962;2022-07-15T11:04:47;98845.78;;;25.56;39.25
2184;BME280;1098;48.940;8.962;2022-07-15T11:07:26;98843.00;;;25.56;40.38
2184;BME280;1098;48.940;8.962;2022-07-15T11:09:56;98839.44;;;23.65;41.83
2184;BME280;1098;48.940;8.962;2022-07-15T11:15:11;98834.16;;;24.23;41.40
2184;BME280;1098;48.940;8.962;2022-07-15T11:17:40;98833.34;;;24.09;41.17
2184;BME280;1098;48.940;8.962;2022-07-15T11:20:09;98828.34;;;24.39;40.89
2184;BME280;1098;48.940;8.962;2022-07-15T11:22:39;98829.25;;;25.20;40.54
2184;BME280;1098;48.940;8.962;2022-07-15T11:25:15;98823.34;;;25.35;43.62
2184;BME280;1098;48.940;8.962;2022-07-15T11:28:05;98819.63;;;24.95;41.22
2184;BME280;1098;48.940;8.962;2022-07-15T11:30:37;98830.88;;;25.65;40.45
2184;BME280;1098;48.940;8.962;2022-07-15T11:33:06;98824.84;;;25.94;38.78
2184;BME280;1098;48.940;8.962;2022-07-15T11:35:42;98827.44;;;24.29;40.46
2184;BME280;1098;48.940;8.962;2022-07-15T11:38:11;98826.03;;;25.80;39.73
2184;BME280;1098;48.940;8.962;2022-07-15T11:40:42;98823.34;;;25.35;39.62
2184;BME280;1098;48.940;8.962;2022-07-15T11:43:28;98829.50;;;25.85;40.76
2184;BME280;1098;48.940;8.962;2022-07-15T11:46:15;98819.06;;;25.07;40.59
2184;BME280;1098;48.940;8.962;2022-07-15T11:48:44;98827.00;;;24.86;39.86
2184;BME280;1098;48.940;8.962;2022-07-15T11:51:12;98817.16;;;25.16;40.94
2184;BME280;1098;48.940;8.962;2022-07-15T11:53:41;98823.53;;;26.00;40.50
2184;BME280;1098;48.940;8.962;2022-07-15T11:56:10;98822.25;;;25.98;37.97
2184;BME280;1098;48.940;8.962;2022-07-15T11:58:40;98812.53;;;26.26;36.97
2184;BME280;1098;48.940;8.962;2022-07-15T12:01:10;98820.97;;;26.69;39.33
2184;BME280;1098;48.940;8.962;2022-07-15T12:03:40;98802.41;;;27.22;38.73
2184;BME280;1098;48.940;8.962;2022-07-15T12:06:10;98801.91;;;27.20;38.88
2184;BME280;1098;48.940;8.962;2022-07-15T12:08:42;98802.47;;;27.51;37.88
2184;BME280;1098;48.940;8.962;2022-07-15T12:14:00;98809.41;;;26.19;37.53
2184;BME280;1098;48.940;8.962;2022-07-15T12:16:30;98816.59;;;26.20;37.45
2184;BME280;1098;48.940;8.962;2022-07-15T12:19:01;98807.56;;;26.63;37.40
2184;BME280;1098;48.940;8.962;2022-07-15T12:21:30;98805.31;;;27.34;37.63
2184;BME280;1098;48.940;8.962;2022-07-15T12:23:59;98817.09;;;26.22;37.00
2184;BME280;1098;48.940;8.962;2022-07-15T12:26:28;98803.16;;;26.62;37.23
2184;BME280;1098;48.940;8.962;2022-07-15T12:28:56;98806.25;;;26.60;40.59
2184;BME280;1098;48.940;8.962;2022-07-15T12:31:26;98803.78;;;26.33;36.80
2184;BME280;1098;48.940;8.962;2022-07-15T12:33:54;98802.41;;;26.96;36.68
2184;BME280;1098;48.940;8.962;2022-07-15T12:36:25;98811.06;;;25.50;37.90
2184;BME280;1098;48.940;8.962;2022-07-15T12:39:04;98788.34;;;26.66;38.86
2184;BME280;1098;48.940;8.962;2022-07-15T12:41:32;98800.59;;;25.69;37.55
2184;BME280;1098;48.940;8.962;2022-07-15T12:44:01;98800.88;;;26.47;37.68
2184;BME280;1098;48.940;8.962;2022-07-15T12:51:57;98804.81;;;25.97;38.38
2184;BME280;1098;48.940;8.962;2022-07-15T12:54:25;98807.00;;;26.26;36.98
2184;BME280;1098;48.940;8.962;2022-07-15T12:56:54;98807.88;;;26.35;37.42
2184;BME280;1098;48.940;8.962;2022-07-15T12:59:22;98798.50;;;26.23;37.46
2184;BME280;1098;48.940;8.962;2022-07-15T13:02:00;98803.31;;;26.40;37.68
2184;BME280;1098;48.940;8.962;2022-07-15T13:04:28;98808.56;;;26.01;36.96
2184;BME280;1098;48.940;8.962;2022-07-15T13:06:58;98813.88;;;25.89;39.60
2184;BME280;1098;48.940;8.962;2022-07-15T13:09:26;98806.16;;;25.69;38.20
2184;BME280;1098;48.940;8.962;2022-07-15T13:11:57;98808.06;;;25.99;37.56
2184;BME280;1098;48.940;8.962;2022-07-15T13:14:26;98816.59;;;25.50;37.82
2184;BME280;1098;48.940;8.962;2022-07-15T13:16:55;98814.91;;;26.02;39.52
2184;BME280;1098;48.940;8.962;2022-07-15T13:19:23;98803.75;;;25.85;39.26
2184;BME280;1098;48.940;8.962;2022-07-15T13:21:51;98804.16;;;26.00;37.29
2184;BME280;1098;48.940;8.962;2022-07-15T13:24:20;98807.09;;;26.61;38.99
2184;BME280;1098;48.940;8.962;2022-07-15T13:26:48;98798.31;;;26.59;37.56
2184;BME280;1098;48.940;8.962;2022-07-15T13:29:17;98817.38;;;26.52;37.03
2184;BME280;1098;48.940;8.962;2022-07-15T13:31:45;98811.50;;;26.05;38.72
2184;BME280;1098;48.940;8.962;2022-07-15T13:34:13;98803.00;;;26.50;36.69
2184;BME280;1098;48.940;8.962;2022-07-15T13:36:41;98804.97;;;26.66;37.16
2184;BME280;1098;48.940;8.962;2022-07-15T13:39:12;98797.31;;;26.63;37.17
2184;BME280;1098;48.940;8.962;2022-07-15T13:41:42;98805.47;;;25.63;37.24
2184;BME280;1098;48.940;8.962;2022-07-15T13:44:10;98804.13;;;25.08;36.89
2184;BME280;1098;48.940;8.962;2022-07-15T13:46:38;98805.47;;;24.60;38.05
2184;BME280;1098;48.940;8.962;2022-07-15T13:49:06;98804.94;;;25.61;37.55
2184;BME280;1098;48.940;8.962;2022-07-15T13:51:34;98799.47;;;24.81;37.95